Terminal Aerodrome Forecast
Issued by NWS

Home | Current Version | Previous Version | Text Only | Print | Product List | Glossary On
Versions: 1 2 3 4 5 6 7 8 9 10 11 12 13 14 15 16 17 18 19 20 21 22
000
FTUS43 KDLH 182000 AAA
TAFHIB
TAF AMD
KHIB 182009Z 1820/1918 15003KT P6SM OVC010
      TEMPO 1822/1901 OVC017
     FM191500 14004KT 6SM BR OVC013=

USA.gov is the U.S. government's official web portal to all federal, state and local government web resources and services.